createdAt,value
2022-10-05T00:00:38.742Z,100072.38
2022-10-05T00:01:43.007Z,100077.43
2022-10-05T00:02:47.439Z,100074.74
2022-10-05T00:03:51.740Z,100081.69
2022-10-05T00:04:56.085Z,100074.84
2022-10-05T00:06:00.367Z,100078.28
2022-10-05T00:07:04.530Z,100075.92
2022-10-05T00:08:08.685Z,100076.62
2022-10-05T00:09:12.805Z,100068.22
2022-10-05T00:10:16.954Z,100071.55
2022-10-05T00:11:21.083Z,100068.93
2022-10-05T00:12:25.268Z,100073.73
2022-10-05T00:13:29.401Z,100074.56
2022-10-05T00:14:33.528Z,100066.2
2022-10-05T00:15:37.676Z,100069.34
2022-10-05T00:16:41.977Z,100065.79
2022-10-05T00:17:46.319Z,100063.95
2022-10-05T00:18:50.496Z,100073.17
2022-10-05T00:19:54.641Z,100063.7
2022-10-05T00:20:58.799Z,100063.72
2022-10-05T00:22:02.966Z,100063.14
2022-10-05T00:23:07.110Z,100068.16
2022-10-05T00:24:11.290Z,100054.44
2022-10-05T00:25:15.427Z,100054.33
2022-10-05T00:26:19.574Z,100059.61
2022-10-05T00:27:23.702Z,100059.86
2022-10-05T00:28:28.018Z,100049.54
2022-10-05T00:29:32.353Z,100053.87
2022-10-05T00:30:36.472Z,100056.98
2022-10-05T00:31:40.693Z,100063.66
2022-10-05T00:32:44.950Z,100051.86
2022-10-05T00:33:49.059Z,100055.16
2022-10-05T00:34:53.213Z,100060.28
2022-10-05T00:35:57.356Z,100060.54
2022-10-05T00:37:01.475Z,100047.83
2022-10-05T00:38:05.595Z,100052.48
2022-10-05T00:39:09.711Z,100058.94
2022-10-05T00:40:13.869Z,100057.37
2022-10-05T00:41:17.994Z,100044.8
2022-10-05T00:42:22.158Z,100048.8
2022-10-05T00:43:26.282Z,100048.98
2022-10-05T00:44:30.397Z,100044.47
2022-10-05T00:45:34.664Z,100050.26
2022-10-05T00:46:38.891Z,100049.69
2022-10-05T00:47:43.011Z,100054.17
2022-10-05T00:48:47.161Z,100048.27
2022-10-05T00:49:51.291Z,100055.89
2022-10-05T00:50:55.438Z,100053.58
2022-10-05T00:51:59.541Z,100043.45
2022-10-05T00:53:03.664Z,100040.58
2022-10-05T00:54:08.010Z,100049.95
2022-10-05T00:55:12.135Z,100058.05
2022-10-05T00:56:16.293Z,100058.54
2022-10-05T00:57:20.407Z,100063.13
2022-10-05T00:58:24.533Z,100054.69
2022-10-05T00:59:28.691Z,100058.58
2022-10-05T01:00:32.792Z,100050.96
2022-10-05T01:01:37.106Z,100051.07
2022-10-05T01:02:41.489Z,100049.91
2022-10-05T01:03:45.700Z,100045.29
2022-10-05T01:04:49.813Z,100049.52
2022-10-05T01:05:53.996Z,100049.95
2022-10-05T01:06:58.111Z,100048.64
2022-10-05T01:08:02.238Z,100055.62
2022-10-05T01:09:06.342Z,100062.98
2022-10-05T01:10:10.459Z,100062.11
2022-10-05T01:11:14.592Z,100061.56
2022-10-05T01:12:18.737Z,100062.12
2022-10-05T01:13:22.846Z,100054.45
2022-10-05T01:14:27.022Z,100055.7
2022-10-05T01:15:31.141Z,100056.76
2022-10-05T01:16:35.384Z,100059.56
2022-10-05T01:17:39.822Z,100059.67
2022-10-05T01:18:43.939Z,100057.86
2022-10-05T01:19:48.051Z,100048.3
2022-10-05T01:20:52.187Z,100046.84
2022-10-05T01:21:56.357Z,100044.82
2022-10-05T01:23:00.549Z,100052.5
2022-10-05T01:24:04.696Z,100044.19
2022-10-05T01:25:08.909Z,100042.34
2022-10-05T01:26:13.062Z,100046.84
2022-10-05T01:27:17.241Z,100006.34
2022-10-05T01:28:21.511Z,100036.98
2022-10-05T01:29:25.755Z,100041.1
2022-10-05T01:30:29.884Z,100030.8
2022-10-05T01:31:34.149Z,100037.88
2022-10-05T01:32:38.426Z,100033.78
2022-10-05T01:33:42.578Z,100036.95
2022-10-05T01:34:46.743Z,100033.22
2022-10-05T01:35:50.878Z,100028.18
2022-10-05T01:36:55.022Z,100037
2022-10-05T01:37:59.161Z,100029.12
2022-10-05T01:39:03.355Z,100028.03
2022-10-05T01:40:07.492Z,100030.02
2022-10-05T01:41:11.655Z,100031.13
2022-10-05T01:42:15.817Z,100028.3
2022-10-05T01:43:20.017Z,100032.59
2022-10-05T01:44:26.701Z,100034.23
2022-10-05T01:45:30.964Z,100038.08
2022-10-05T01:46:35.255Z,100032.66
2022-10-05T01:47:39.412Z,100034.83
2022-10-05T01:48:43.539Z,100040.2
2022-10-05T01:49:47.695Z,100026.09
2022-10-05T01:50:51.852Z,100038.94
2022-10-05T01:51:55.993Z,100034.34
2022-10-05T01:53:00.128Z,100027.84
2022-10-05T01:54:04.274Z,100034.04
2022-10-05T01:55:08.418Z,100025.27
2022-10-05T01:56:12.555Z,100028.21
2022-10-05T01:57:16.711Z,100024.41
2022-10-05T01:58:20.872Z,100022.47
2022-10-05T01:59:25.037Z,100019.03
2022-10-05T02:00:29.184Z,100026.02
2022-10-05T02:01:33.539Z,100021.86
2022-10-05T02:02:37.897Z,100018.42
2022-10-05T02:03:42.099Z,100017.56
2022-10-05T02:05:03.073Z,100018.09
2022-10-05T02:06:07.343Z,100012.56
2022-10-05T02:07:11.457Z,100014.59
2022-10-05T02:08:15.566Z,100013.8
2022-10-05T02:09:19.697Z,100006.08
2022-10-05T02:10:23.854Z,99995.36
2022-10-05T02:11:27.987Z,100002.97
2022-10-05T02:12:32.112Z,100003.98
2022-10-05T02:13:36.239Z,99996.48
2022-10-05T02:14:40.363Z,100003.2
2022-10-05T02:15:44.617Z,100007.75
2022-10-05T02:16:49.879Z,100007.22
2022-10-05T02:17:54.107Z,100017.34
2022-10-05T02:18:58.212Z,100022.42
2022-10-05T02:20:02.368Z,100018.77
2022-10-05T02:21:06.513Z,100024.08
2022-10-05T02:22:10.648Z,100016.3
2022-10-05T02:23:14.802Z,100028.7
2022-10-05T02:24:18.940Z,100033
2022-10-05T02:25:23.116Z,100034.53
2022-10-05T02:26:27.257Z,100031.2
2022-10-05T02:27:31.473Z,100029.67
2022-10-05T02:28:35.789Z,100029.48
2022-10-05T02:29:40.085Z,100026.72
2022-10-05T02:30:44.197Z,100018.59
2022-10-05T02:31:48.461Z,100013.58
2022-10-05T02:32:52.708Z,100014.73
2022-10-05T02:33:56.834Z,100006.26
2022-10-05T02:35:00.950Z,100011.3
2022-10-05T02:36:05.074Z,100005.25
2022-10-05T02:37:09.198Z,100003.65
2022-10-05T02:38:13.354Z,100009.87
2022-10-05T02:39:17.499Z,100000.09
2022-10-05T02:40:21.634Z,100012.91
2022-10-05T02:41:25.769Z,100007.91
2022-10-05T02:42:29.944Z,100022.05
2022-10-05T02:43:34.138Z,100015.78
2022-10-05T02:44:38.253Z,100004.95
2022-10-05T02:45:42.512Z,100013.47
2022-10-05T02:46:47.625Z,100008.58
2022-10-05T02:47:59.926Z,100014.06
2022-10-05T02:49:04.055Z,100005.52
2022-10-05T02:50:08.182Z,100004.8
2022-10-05T02:51:12.328Z,100002.59
2022-10-05T02:52:16.455Z,100003.13
2022-10-05T02:53:20.572Z,99995.73
2022-10-05T02:54:24.684Z,99999.98
2022-10-05T02:55:28.791Z,99993.78
2022-10-05T02:56:32.894Z,99998.08
2022-10-05T02:57:37.000Z,99986.8
2022-10-05T02:58:41.145Z,99991.06
2022-10-05T02:59:45.280Z,99994.57
2022-10-05T03:00:49.541Z,99999.72
2022-10-05T03:01:53.798Z,99994.8
2022-10-05T03:02:57.997Z,99994.68
2022-10-05T03:04:02.102Z,99991.36
2022-10-05T03:05:06.227Z,99988.59
2022-10-05T03:06:10.351Z,99991.28
2022-10-05T03:07:14.457Z,99986.2
2022-10-05T03:08:18.560Z,99983.37
2022-10-05T03:09:22.696Z,99985.91
2022-10-05T03:10:26.820Z,99984.04
2022-10-05T03:11:30.936Z,99983.7
2022-10-05T03:12:35.048Z,99988.24
2022-10-05T03:13:39.172Z,99986.79
2022-10-05T03:14:43.290Z,99979.69
2022-10-05T03:15:47.508Z,99981.96
2022-10-05T03:16:51.719Z,99985.7
2022-10-05T03:17:55.859Z,99997.59
2022-10-05T03:18:59.968Z,99998.01
2022-10-05T03:20:04.059Z,99996.56
2022-10-05T03:21:08.188Z,99989.23
2022-10-05T03:22:12.337Z,99998.67
2022-10-05T03:23:16.491Z,99991.45
2022-10-05T03:24:20.607Z,99999.2
2022-10-05T03:25:24.706Z,99994.58
2022-10-05T03:26:28.807Z,99987.98
2022-10-05T03:27:32.908Z,99991.75
2022-10-05T03:28:37.141Z,99988.23
2022-10-05T03:29:41.408Z,99983.11
2022-10-05T03:30:45.528Z,99977.23
2022-10-05T03:31:49.910Z,99989.36
2022-10-05T03:32:54.006Z,99981.68
2022-10-05T03:33:58.103Z,99987.28
2022-10-05T03:35:02.219Z,99989.61
2022-10-05T03:36:06.331Z,99987.22
2022-10-05T03:37:10.426Z,99997.14
2022-10-05T03:38:14.525Z,100002.35
2022-10-05T03:39:18.660Z,100005.48
2022-10-05T03:40:22.781Z,100018.2
2022-10-05T03:41:26.928Z,100021.09
2022-10-05T03:42:31.073Z,100011.41
2022-10-05T03:43:35.174Z,100018.23
2022-10-05T03:44:39.321Z,100017.33
2022-10-05T03:45:43.449Z,100019.42
2022-10-05T03:46:48.310Z,100033.53
2022-10-05T03:47:54.857Z,100026.58
2022-10-05T03:49:04.711Z,100035.17
2022-10-05T03:50:08.867Z,100037.88
2022-10-05T03:51:12.988Z,100035.09
2022-10-05T03:52:17.155Z,100032.51
2022-10-05T03:53:21.301Z,100027
2022-10-05T03:54:25.507Z,100038.27
2022-10-05T03:55:29.627Z,100033.21
2022-10-05T03:56:33.746Z,100037
2022-10-05T03:57:37.891Z,100039.23
2022-10-05T03:58:41.997Z,100044.66
2022-10-05T03:59:46.101Z,100043.56
2022-10-05T04:00:50.241Z,100038.45
2022-10-05T04:01:54.494Z,100046.65
2022-10-05T04:02:58.858Z,100038.66
2022-10-05T04:04:03.100Z,100045.66
2022-10-05T04:05:07.280Z,100051.34
2022-10-05T04:06:11.424Z,100048.52
2022-10-05T04:07:15.545Z,100052.48
2022-10-05T04:08:19.679Z,100047.83
2022-10-05T04:09:23.814Z,100048.52
2022-10-05T04:10:27.939Z,100036.6
2022-10-05T04:11:32.056Z,100039.88
2022-10-05T04:12:36.198Z,100033.41
2022-10-05T04:13:40.346Z,100019.16
2022-10-05T04:14:44.483Z,100018.69
2022-10-05T04:15:48.741Z,100014.09
2022-10-05T04:16:53.006Z,100019.33
2022-10-05T04:17:57.156Z,100015.02
2022-10-05T04:19:01.301Z,100017.56
2022-10-05T04:20:05.445Z,100008.5
2022-10-05T04:21:09.615Z,100012.94
2022-10-05T04:22:13.723Z,99997.89
2022-10-05T04:23:20.609Z,99994.09
2022-10-05T04:24:24.713Z,99987.03
2022-10-05T04:25:28.840Z,99982.19
2022-10-05T04:26:32.976Z,99975.48
2022-10-05T04:27:37.071Z,99979.91
2022-10-05T04:28:41.345Z,99977.47
2022-10-05T04:29:45.628Z,99974.14
2022-10-05T04:30:49.717Z,99981.56
2022-10-05T04:31:54.097Z,99980.84
2022-10-05T04:32:58.316Z,99984.24
2022-10-05T04:34:02.402Z,99985.52
2022-10-05T04:35:06.536Z,99988.09
2022-10-05T04:36:10.646Z,99981.8
2022-10-05T04:37:14.795Z,99987.16
2022-10-05T04:38:18.922Z,99988.02
2022-10-05T04:39:23.025Z,99984.06
2022-10-05T04:40:27.121Z,99989.62
2022-10-05T04:41:31.235Z,99989.08
2022-10-05T04:42:35.345Z,99975.33
2022-10-05T04:43:39.565Z,99974.84
2022-10-05T04:44:43.661Z,99973.27
2022-10-05T04:45:47.765Z,99964.59
2022-10-05T04:46:52.378Z,99977.98
2022-10-05T04:47:56.597Z,99971.27
2022-10-05T04:49:00.704Z,99972.84
2022-10-05T04:50:04.866Z,99987.78
2022-10-05T04:51:08.971Z,99994.8
2022-10-05T04:52:13.086Z,100000.91
2022-10-05T04:53:17.231Z,100001.96
2022-10-05T04:54:21.380Z,99996
2022-10-05T04:55:25.492Z,99996.87
2022-10-05T04:56:29.615Z,99995.16
2022-10-05T04:57:33.752Z,99985.79
2022-10-05T04:58:43.152Z,99990.09
2022-10-05T04:59:47.265Z,99987.8
2022-10-05T05:00:51.519Z,99986.67
2022-10-05T05:01:55.741Z,99986.33
2022-10-05T05:02:59.926Z,99981.97
2022-10-05T05:04:04.242Z,99981.73
2022-10-05T05:05:08.474Z,99975.25
2022-10-05T05:06:18.761Z,99979.61
2022-10-05T05:07:22.892Z,99964.91
2022-10-05T05:08:27.020Z,99969.86
2022-10-05T05:09:31.123Z,99955.81
2022-10-05T05:10:35.241Z,99964.72
2022-10-05T05:11:39.386Z,99973.81
2022-10-05T05:12:43.496Z,99966.64
2022-10-05T05:13:47.582Z,99973.17
2022-10-05T05:14:51.727Z,99970.15
2022-10-05T05:15:55.966Z,99975.2
2022-10-05T05:17:00.237Z,99977.47
2022-10-05T05:18:04.343Z,99973.62
2022-10-05T05:19:08.432Z,99966.92
2022-10-05T05:20:12.599Z,99970.98
2022-10-05T05:21:16.727Z,99977.06
2022-10-05T05:22:20.954Z,99976.52
2022-10-05T05:23:25.057Z,99987.55
2022-10-05T05:24:29.163Z,99993.77
2022-10-05T05:25:33.308Z,99984.66
2022-10-05T05:26:40.069Z,99995.45
2022-10-05T05:27:44.191Z,99996.97
2022-10-05T05:28:48.316Z,99989.89
2022-10-05T05:29:52.425Z,99990.84
2022-10-05T05:30:56.662Z,99985.18
2022-10-05T05:32:00.867Z,99982.67
2022-10-05T05:33:05.035Z,99978.17
2022-10-05T05:34:09.148Z,99976.66
2022-10-05T05:35:13.243Z,99973.06
2022-10-05T05:36:23.626Z,99979
2022-10-05T05:37:27.776Z,99982.71
2022-10-05T05:38:31.885Z,99987.8
2022-10-05T05:39:35.989Z,99985.16
2022-10-05T05:40:40.137Z,99995.5
2022-10-05T05:41:44.482Z,99994.67
2022-10-05T05:42:48.914Z,99989.41
2022-10-05T05:43:53.113Z,99977.09
2022-10-05T05:44:57.386Z,99995.36
2022-10-05T05:46:01.586Z,100000.2
2022-10-05T05:47:07.138Z,99994.43
2022-10-05T05:48:12.115Z,99998.14
2022-10-05T05:49:16.380Z,99992.75
2022-10-05T05:50:20.567Z,99990.72
2022-10-05T05:51:24.823Z,99998.8
2022-10-05T05:52:29.041Z,99985.02
2022-10-05T05:53:33.260Z,99990.96
2022-10-05T05:54:37.454Z,99988.8
2022-10-05T05:55:41.625Z,99988.05
2022-10-05T05:56:46.576Z,99991.72
2022-10-05T05:57:51.486Z,99981.97
2022-10-05T05:58:55.925Z,99985.61
2022-10-05T06:00:00.163Z,99970.84
2022-10-05T06:01:04.410Z,99974.41
2022-10-05T06:02:08.739Z,99969.98
2022-10-05T06:03:13.406Z,99962.42
2022-10-05T06:04:17.756Z,99950.03
2022-10-05T06:05:21.960Z,99962.28
2022-10-05T06:06:26.105Z,99960.53
2022-10-05T06:07:31.876Z,99966.48
2022-10-05T06:08:36.120Z,99965.34
2022-10-05T06:09:40.304Z,99971.28
2022-10-05T06:10:44.647Z,99971.11
2022-10-05T06:11:51.216Z,99981.07
2022-10-05T06:13:01.660Z,99984.67
2022-10-05T06:14:06.009Z,99989.34
2022-10-05T06:15:10.225Z,99990.27
2022-10-05T06:16:14.542Z,99994.53
2022-10-05T06:17:18.791Z,99996.01
2022-10-05T06:18:23.025Z,99999.34
2022-10-05T06:19:27.247Z,100000.27
2022-10-05T06:20:31.464Z,99984.4
2022-10-05T06:21:35.647Z,99997.83
2022-10-05T06:22:39.883Z,99990.48
2022-10-05T06:23:44.195Z,99986.52
2022-10-05T06:24:48.532Z,100001.7
2022-10-05T06:25:55.589Z,100001.56
2022-10-05T06:26:59.863Z,100006.23
2022-10-05T06:28:04.266Z,100007.16
2022-10-05T06:29:08.685Z,100015.61
2022-10-05T06:30:13.126Z,100008.02
2022-10-05T06:31:17.585Z,100017.53
2022-10-05T06:32:21.899Z,100021.72
2022-10-05T06:33:26.092Z,100022.06
2022-10-05T06:34:30.390Z,100021.66
2022-10-05T06:35:34.580Z,100014.74
2022-10-05T06:36:38.753Z,100020.8
2022-10-05T06:37:42.996Z,100022.5
2022-10-05T06:38:47.207Z,100026.5
2022-10-05T06:39:51.431Z,100022.38
2022-10-05T06:40:55.703Z,100020.63
2022-10-05T06:41:59.960Z,100012.52
2022-10-05T06:43:04.180Z,100017.67
2022-10-05T06:44:08.372Z,100015.23
2022-10-05T06:45:12.603Z,100018.16
2022-10-05T06:46:17.005Z,100016.23
2022-10-05T06:47:21.375Z,100023.93
2022-10-05T06:48:28.741Z,100025.68
2022-10-05T06:49:32.925Z,100011.33
2022-10-05T06:50:37.150Z,100009.47
2022-10-05T06:51:41.365Z,100007.75
2022-10-05T06:52:45.557Z,100009.27
2022-10-05T06:53:49.747Z,100009.5
2022-10-05T06:54:53.920Z,100013.87
2022-10-05T06:56:01.010Z,100008.58
2022-10-05T06:57:05.244Z,100008.34
2022-10-05T06:58:09.481Z,100011.09
2022-10-05T06:59:13.956Z,100003.67
2022-10-05T07:00:18.222Z,100005.42
2022-10-05T07:01:22.647Z,100005.11
2022-10-05T07:02:27.154Z,100000.75
2022-10-05T07:03:31.608Z,99991.82
2022-10-05T07:04:38.118Z,100007.38
2022-10-05T07:05:42.325Z,100003.59
2022-10-05T07:06:46.458Z,100001.67
2022-10-05T07:07:50.620Z,99996.94
2022-10-05T07:08:54.793Z,100003.88
2022-10-05T07:09:58.979Z,100004.05
2022-10-05T07:11:03.227Z,100011.12
2022-10-05T07:12:08.274Z,100012.8
2022-10-05T07:13:12.706Z,100006.34
2022-10-05T07:14:16.920Z,100021.98
2022-10-05T07:15:21.214Z,100026.44
2022-10-05T07:16:26.732Z,100023.25
2022-10-05T07:17:31.100Z,100033.95
2022-10-05T07:18:35.277Z,100026.78
2022-10-05T07:19:39.520Z,100023.17
2022-10-05T07:20:49.848Z,100027.19
2022-10-05T07:21:54.209Z,100021.35
2022-10-05T07:22:58.659Z,100022.11
2022-10-05T07:24:02.864Z,100018.23
2022-10-05T07:25:07.077Z,100019.91
2022-10-05T07:26:11.301Z,100022.08
2022-10-05T07:27:15.478Z,100010.36
2022-10-05T07:28:19.719Z,100014.45
2022-10-05T07:29:23.993Z,100007.52
2022-10-05T07:30:28.286Z,100003.5
2022-10-05T07:31:32.568Z,99992.16
2022-10-05T07:32:36.753Z,99996.83
2022-10-05T07:33:40.876Z,99994.05
2022-10-05T07:34:45.144Z,99991.72
2022-10-05T07:35:49.337Z,99986.95
2022-10-05T07:36:56.453Z,99984.75
2022-10-05T07:38:01.574Z,99993.47
2022-10-05T07:39:05.853Z,99979.77
2022-10-05T07:40:10.036Z,99988.86
2022-10-05T07:41:14.319Z,99981.59
2022-10-05T07:42:18.523Z,99978.33
2022-10-05T07:43:22.766Z,99979.91
2022-10-05T07:44:27.065Z,99985.13
2022-10-05T07:45:31.407Z,99982.44
2022-10-05T07:46:35.657Z,99990.65
2022-10-05T07:47:39.827Z,99994.73
2022-10-05T07:48:44.000Z,99990.03
2022-10-05T07:49:48.263Z,99987.59
2022-10-05T07:50:52.676Z,99982.86
2022-10-05T07:51:56.870Z,99988.66
2022-10-05T07:53:03.676Z,99991.89
2022-10-05T07:54:07.880Z,99989.31
2022-10-05T07:55:12.032Z,99986.88
2022-10-05T07:56:16.182Z,99981.38
2022-10-05T07:57:20.335Z,99976.16
2022-10-05T07:58:24.582Z,99985.73
2022-10-05T07:59:28.791Z,99979.9
2022-10-05T08:00:33.082Z,99983.81
2022-10-05T08:01:37.692Z,99987.97
2022-10-05T08:02:42.308Z,99988.24
2022-10-05T08:03:46.729Z,99985.22
2022-10-05T08:04:50.920Z,99993.67
2022-10-05T08:05:55.175Z,99987.56
2022-10-05T08:06:59.360Z,99983.41
2022-10-05T08:08:03.526Z,99980.72
2022-10-05T08:09:07.755Z,99983.78
2022-10-05T08:10:11.988Z,99989.76
2022-10-05T08:11:16.169Z,99987.8
2022-10-05T08:12:20.374Z,99994.64
2022-10-05T08:13:24.591Z,99984.67
2022-10-05T08:14:28.714Z,99991.13
2022-10-05T08:15:32.939Z,99981.76
2022-10-05T08:16:37.269Z,99986.05
2022-10-05T08:17:41.400Z,99991.48
2022-10-05T08:18:45.565Z,99985.56
2022-10-05T08:19:51.108Z,99986.77
2022-10-05T08:20:55.364Z,99973.62
2022-10-05T08:22:01.578Z,99973.97
2022-10-05T08:23:05.772Z,99970.63
2022-10-05T08:24:09.939Z,99979.28
2022-10-05T08:25:14.122Z,99983.2
2022-10-05T08:26:18.328Z,99986.7
2022-10-05T08:27:24.172Z,99977.84
2022-10-05T08:28:28.467Z,99973.07
2022-10-05T08:29:32.752Z,99979.77
2022-10-05T08:30:36.885Z,99983.3
2022-10-05T08:31:41.190Z,99977.98
2022-10-05T08:32:45.447Z,99973.97
2022-10-05T08:33:49.601Z,99970.7
2022-10-05T08:34:53.777Z,99973.72
2022-10-05T08:35:58.003Z,99977.3
2022-10-05T08:37:02.179Z,99982.17
2022-10-05T08:38:06.348Z,99984.98
2022-10-05T08:39:10.478Z,99983.58
2022-10-05T08:40:14.637Z,99986.33
2022-10-05T08:41:18.805Z,99982.41
2022-10-05T08:42:22.952Z,99982.89
2022-10-05T08:43:29.591Z,99981.28
2022-10-05T08:44:38.697Z,99982.2
2022-10-05T08:45:43.078Z,99986.39
2022-10-05T08:46:47.332Z,99978.05
2022-10-05T08:47:51.477Z,99985.64
2022-10-05T08:48:55.680Z,99984.3
2022-10-05T08:49:59.808Z,99979.45
2022-10-05T08:51:04.014Z,99994.33
2022-10-05T08:52:08.253Z,99987.46
2022-10-05T08:53:12.422Z,99991.06
2022-10-05T08:54:16.550Z,99993.4
2022-10-05T08:55:20.732Z,100000.58
2022-10-05T08:56:29.628Z,99995.29
2022-10-05T08:57:33.797Z,99985.61
2022-10-05T08:58:37.986Z,99988.11
2022-10-05T08:59:42.158Z,99979.73
2022-10-05T09:00:46.414Z,99993.67
2022-10-05T09:01:51.362Z,99993.95
2022-10-05T09:02:55.789Z,99996.77
2022-10-05T09:04:00.089Z,99997.38
2022-10-05T09:05:04.315Z,99991.95
2022-10-05T09:06:08.586Z,99981.17
2022-10-05T09:07:12.725Z,99983.09
2022-10-05T09:08:16.912Z,99967.67
2022-10-05T09:09:21.041Z,99975.16
2022-10-05T09:10:25.191Z,99968.57
2022-10-05T09:11:29.351Z,99975.92
2022-10-05T09:12:33.499Z,99967.58
2022-10-05T09:13:37.622Z,99970.56
2022-10-05T09:14:41.742Z,99969.39
2022-10-05T09:15:45.984Z,99971.32
2022-10-05T09:16:50.188Z,99979.21
2022-10-05T09:17:54.388Z,99975.88
2022-10-05T09:18:58.538Z,99978.19
2022-10-05T09:20:02.692Z,99974.61
2022-10-05T09:21:06.791Z,99979.28
2022-10-05T09:22:10.906Z,99982.72
2022-10-05T09:23:15.053Z,99971.52
2022-10-05T09:24:19.189Z,99984.23
2022-10-05T09:25:23.289Z,99982.75
2022-10-05T09:26:27.374Z,99989.27
2022-10-05T09:27:31.533Z,99986.94
2022-10-05T09:28:35.769Z,99989.09
2022-10-05T09:29:40.043Z,99995.55
2022-10-05T09:30:44.703Z,99985.87
2022-10-05T09:31:49.693Z,99998.3
2022-10-05T09:32:53.937Z,100000.56
2022-10-05T09:33:58.080Z,99990.81
2022-10-05T09:35:02.242Z,99989.64
2022-10-05T09:36:06.398Z,99996.2
2022-10-05T09:37:11.051Z,99989.52
2022-10-05T09:38:15.161Z,99987.2
2022-10-05T09:39:19.275Z,99993.63
2022-10-05T09:40:23.425Z,99985.36
2022-10-05T09:41:27.568Z,99983.84
2022-10-05T09:42:31.650Z,99983.41
2022-10-05T09:43:35.945Z,99982.23
2022-10-05T09:44:40.441Z,99981.82
2022-10-05T09:45:44.646Z,99986.56
2022-10-05T09:46:48.786Z,99986.22
2022-10-05T09:47:52.906Z,99986.05
2022-10-05T09:48:57.035Z,99986.39
2022-10-05T09:50:01.166Z,99979.55
2022-10-05T09:51:05.281Z,99987.25
2022-10-05T09:52:09.584Z,99975.12
2022-10-05T09:53:18.300Z,99981.31
2022-10-05T09:54:22.525Z,99981.23
2022-10-05T09:55:26.690Z,99977.73
2022-10-05T09:56:30.887Z,99981.85
2022-10-05T09:57:35.012Z,99986.11
2022-10-05T09:58:39.137Z,99987.86
2022-10-05T09:59:43.261Z,99993.39
2022-10-05T10:01:03.566Z,99989.61
2022-10-05T10:02:36.610Z,99986.7
2022-10-05T10:03:40.997Z,99985.84
2022-10-05T10:04:45.110Z,99980.24
2022-10-05T10:05:49.255Z,99985.59
2022-10-05T10:06:53.381Z,99975.67
2022-10-05T10:07:57.590Z,99969.73
2022-10-05T10:09:01.722Z,99985.63
2022-10-05T10:10:05.858Z,99972.99
2022-10-05T10:11:10.050Z,99978.08
2022-10-05T10:12:14.147Z,99975.43
2022-10-05T10:13:18.288Z,99978.08
2022-10-05T10:14:22.377Z,99981.58
2022-10-05T10:15:26.504Z,99985.19
2022-10-05T10:16:30.618Z,99979.48
2022-10-05T10:17:34.761Z,99979
2022-10-05T10:18:38.948Z,99985.19
2022-10-05T10:19:43.131Z,99981.75
2022-10-05T10:20:47.286Z,99981.75
2022-10-05T10:21:51.465Z,99967.3
2022-10-05T10:22:55.581Z,99972.2
2022-10-05T10:23:59.752Z,99979.31
2022-10-05T10:25:03.860Z,99979.41
2022-10-05T10:26:07.982Z,99978.91
2022-10-05T10:27:12.111Z,99979.41
2022-10-05T10:28:16.437Z,99972.38
2022-10-05T10:29:20.908Z,99969.77
2022-10-05T10:30:30.148Z,99964.75
2022-10-05T10:31:38.804Z,99970.36
2022-10-05T10:32:42.944Z,99964.28
2022-10-05T10:33:47.079Z,99964.45
2022-10-05T10:34:51.234Z,99962.7
2022-10-05T10:35:55.337Z,99962.7
2022-10-05T10:36:59.441Z,99959.44
2022-10-05T10:38:03.551Z,99967.44
2022-10-05T10:39:07.713Z,99970.56
2022-10-05T10:40:11.847Z,99976.23
2022-10-05T10:41:15.971Z,99970.63
2022-10-05T10:42:26.449Z,99966.78
2022-10-05T10:43:30.690Z,99971.89
2022-10-05T10:44:34.840Z,99963.42
2022-10-05T10:45:39.004Z,99967.27
2022-10-05T10:46:43.240Z,99975.64
2022-10-05T10:47:47.446Z,99973.44
2022-10-05T10:48:51.582Z,99972.48
2022-10-05T10:49:55.719Z,99976.88
2022-10-05T10:50:59.845Z,99975.47
2022-10-05T10:52:03.968Z,99974.2
2022-10-05T10:53:08.115Z,99977.46
2022-10-05T10:54:12.244Z,99985.39
2022-10-05T10:55:16.354Z,99980.31
2022-10-05T10:56:20.521Z,99985.53
2022-10-05T10:57:24.638Z,99980.38
2022-10-05T10:59:33.974Z,99987.48
2022-10-05T11:00:38.092Z,99989.48
2022-10-05T11:01:42.321Z,99979.08
2022-10-05T11:02:46.690Z,99975.85
2022-10-05T11:03:50.939Z,99964.21
2022-10-05T11:04:55.078Z,99984.36
2022-10-05T11:05:59.182Z,99979.52
2022-10-05T11:07:03.338Z,99977.33
2022-10-05T11:08:07.481Z,99980.42
2022-10-05T11:09:11.767Z,99963.38
2022-10-05T11:10:16.025Z,99977.02
2022-10-05T11:11:20.149Z,99966.89
2022-10-05T11:12:24.278Z,99969.05
2022-10-05T11:13:28.428Z,99966.48
2022-10-05T11:14:32.586Z,99966.3
2022-10-05T11:15:36.826Z,99965.2
2022-10-05T11:16:41.034Z,99970.8
2022-10-05T11:17:45.156Z,99975.75
2022-10-05T11:18:49.292Z,99979.45
2022-10-05T11:20:05.477Z,99973.86
2022-10-05T11:21:09.833Z,99976.16
2022-10-05T11:22:13.991Z,99968.13
2022-10-05T11:23:18.157Z,99977.09
2022-10-05T11:24:22.272Z,99973.17
2022-10-05T11:25:26.388Z,99975.51
2022-10-05T11:26:30.485Z,99969.33
2022-10-05T11:27:34.635Z,99969.59
2022-10-05T11:28:39.080Z,99968.5
2022-10-05T11:29:43.340Z,99972.11
2022-10-05T11:30:51.537Z,99959.98
2022-10-05T11:31:56.038Z,99964.38
2022-10-05T11:33:00.393Z,99961.73
2022-10-05T11:34:04.556Z,99958.95
2022-10-05T11:35:08.702Z,99884.28
2022-10-05T11:36:12.809Z,99960.88
2022-10-05T11:37:16.932Z,99950.47
2022-10-05T11:38:21.050Z,99961.8
2022-10-05T11:39:25.190Z,99961.88
2022-10-05T11:40:29.329Z,99961.88
2022-10-05T11:41:33.468Z,99967.67
2022-10-05T11:42:37.576Z,99970.42
2022-10-05T11:43:41.836Z,99973.03
2022-10-05T11:44:45.979Z,99960.3
2022-10-05T11:45:50.076Z,99967.23
2022-10-05T11:46:54.379Z,99962.8
2022-10-05T11:47:58.594Z,99964.48
2022-10-05T11:49:02.810Z,99963.14
2022-10-05T11:50:06.933Z,99964.55
2022-10-05T11:51:11.056Z,99957.96
2022-10-05T11:52:15.174Z,99962.36
2022-10-05T11:53:19.343Z,99951.78
2022-10-05T11:54:23.488Z,99958.95
2022-10-05T11:55:27.653Z,99959.37
2022-10-05T11:56:31.787Z,99954.59
2022-10-05T11:57:35.931Z,99962.22
2022-10-05T11:58:40.053Z,99959.37
2022-10-05T11:59:44.180Z,99953.53
2022-10-05T12:00:48.348Z,99949.59
2022-10-05T12:01:52.490Z,99950.68
2022-10-05T12:02:56.863Z,99963.56
2022-10-05T12:04:01.568Z,99956.17
2022-10-05T12:05:05.891Z,99950.92
2022-10-05T12:06:10.042Z,99955.25
2022-10-05T12:07:14.154Z,99959.03
2022-10-05T12:08:18.359Z,99954.91
2022-10-05T12:09:22.504Z,99952.74
2022-10-05T12:10:26.675Z,99955.83
2022-10-05T12:11:30.953Z,99955.77
2022-10-05T12:12:35.106Z,99955.86
2022-10-05T12:13:39.214Z,99950.06
2022-10-05T12:14:43.316Z,99948.97
2022-10-05T12:15:47.537Z,99951.92
2022-10-05T12:16:51.965Z,99950.52
2022-10-05T12:17:56.357Z,99948.92
2022-10-05T12:19:00.522Z,99948.95
2022-10-05T12:20:04.849Z,99949.91
2022-10-05T12:21:09.028Z,99938.55
2022-10-05T12:22:13.175Z,99941.58
2022-10-05T12:23:17.284Z,99943.39
2022-10-05T12:24:27.527Z,99947.34
2022-10-05T12:25:31.635Z,99938.87
2022-10-05T12:26:35.769Z,99938.7
2022-10-05T12:27:39.904Z,99939.69
2022-10-05T12:28:44.029Z,99936.69
2022-10-05T12:29:48.154Z,99934.56
2022-10-05T12:30:52.271Z,99940.3
2022-10-05T12:31:56.378Z,99935.77
2022-10-05T12:33:03.367Z,99938.15